createdAt,value
2019-03-01T00:01:25.709Z,5.55
2019-03-01T00:04:00.120Z,5.45
2019-03-01T00:06:46.979Z,5.12
2019-03-01T00:09:36.412Z,5.55
2019-03-01T00:12:31.576Z,5.87
2019-03-01T00:15:40.382Z,5.25
2019-03-01T00:19:01.163Z,5.72
2019-03-01T00:21:54.522Z,6.12
2019-03-01T00:25:00.794Z,5.87
2019-03-01T00:28:07.932Z,5.47
2019-03-01T00:31:01.608Z,5.70
2019-03-01T00:34:01.748Z,6.05
2019-03-01T00:37:25.434Z,6.03
2019-03-01T00:40:17.437Z,5.97
2019-03-01T00:43:24.789Z,5.90
2019-03-01T00:45:55.054Z,6.08
2019-03-01T00:48:25.301Z,6.08
2019-03-01T00:50:55.662Z,6.62
2019-03-01T00:53:26.056Z,6.47
2019-03-01T00:55:56.541Z,6.35
2019-03-01T00:58:26.989Z,6.60
2019-03-01T01:00:57.255Z,6.08
2019-03-01T01:03:28.747Z,6.05
2019-03-01T01:05:59.229Z,6.15
2019-03-01T01:08:29.633Z,5.55
2019-03-01T01:10:59.971Z,6.03
2019-03-01T01:13:30.287Z,6.10
2019-03-01T01:16:00.496Z,6.67
2019-03-01T01:18:31.020Z,6.35
2019-03-01T01:21:01.464Z,6.62
2019-03-01T01:23:31.887Z,6.37
2019-03-01T01:26:02.141Z,6.10
2019-03-01T01:28:32.531Z,6.53
2019-03-01T01:31:02.978Z,6.97
2019-03-01T01:33:33.460Z,6.53
2019-03-01T01:36:03.936Z,6.55
2019-03-01T01:38:34.234Z,6.60
2019-03-01T01:41:04.699Z,6.17
2019-03-01T01:43:35.205Z,6.33
2019-03-01T01:46:05.578Z,6.75
2019-03-01T01:48:35.813Z,7.28
2019-03-01T01:51:06.302Z,6.78
2019-03-01T01:53:36.688Z,6.62
2019-03-01T01:56:07.128Z,6.92
2019-03-01T01:58:37.548Z,7.25
2019-03-01T02:01:07.959Z,6.70
2019-03-01T02:03:38.259Z,6.50
2019-03-01T02:06:08.693Z,6.33
2019-03-01T02:08:39.131Z,6.97
2019-03-01T02:11:09.444Z,6.62
2019-03-01T02:13:39.812Z,6.33
2019-03-01T02:16:10.228Z,5.97
2019-03-01T02:18:40.615Z,7.08
2019-03-01T02:21:11.105Z,7.05
2019-03-01T02:23:53.571Z,6.80
2019-03-01T02:26:23.913Z,6.92
2019-03-01T02:28:54.203Z,7.20
2019-03-01T02:31:24.732Z,7.37
2019-03-01T02:33:55.012Z,7.03
2019-03-01T02:36:25.385Z,6.95
2019-03-01T02:38:55.831Z,6.65
2019-03-01T02:41:38.390Z,7.35
2019-03-01T02:44:08.799Z,6.47
2019-03-01T02:46:39.138Z,6.50
2019-03-01T02:49:09.577Z,7.33
2019-03-01T02:51:39.884Z,7.17
2019-03-01T02:54:10.189Z,7.20
2019-03-01T02:56:40.709Z,6.95
2019-03-01T02:59:11.098Z,6.70
2019-03-01T03:01:41.416Z,7.15
2019-03-01T03:04:11.797Z,7.17
2019-03-01T03:06:53.831Z,7.33
2019-03-01T03:09:24.282Z,7.25
2019-03-01T03:11:54.733Z,7.20
2019-03-01T03:14:25.409Z,7.17
2019-03-01T03:16:55.852Z,6.80
2019-03-01T03:19:27.810Z,7.22
2019-03-01T03:21:58.135Z,7.22
2019-03-01T03:24:28.523Z,7.30
2019-03-01T03:26:58.855Z,7.12
2019-03-01T03:29:29.346Z,7.15
2019-03-01T03:32:18.843Z,7.37
2019-03-01T03:34:49.231Z,6.87
2019-03-01T03:37:19.672Z,7.00
2019-03-01T03:39:49.962Z,7.37
2019-03-01T03:42:20.443Z,6.87
2019-03-01T03:45:02.471Z,7.28
2019-03-01T03:47:32.956Z,7.42
2019-03-01T03:50:03.524Z,7.37
2019-03-01T03:52:33.936Z,7.45
2019-03-01T03:55:04.385Z,7.03
2019-03-01T03:57:34.802Z,7.40
2019-03-01T04:00:06.636Z,6.70
2019-03-01T04:02:37.116Z,7.80
2019-03-01T04:05:07.654Z,8.58
2019-03-01T04:07:38.445Z,7.58
2019-03-01T04:10:27.870Z,7.37
2019-03-01T04:12:58.198Z,7.17
2019-03-01T04:15:28.482Z,8.13
2019-03-01T04:18:10.697Z,7.22
2019-03-01T04:20:40.966Z,7.12
2019-03-01T04:23:11.373Z,7.62
2019-03-01T04:25:42.159Z,7.30
2019-03-01T04:28:12.576Z,7.40
2019-03-01T04:30:55.010Z,7.50
2019-03-01T04:33:25.431Z,7.37
2019-03-01T04:35:55.750Z,7.65
2019-03-01T04:38:26.055Z,7.33
2019-03-01T04:40:56.481Z,6.80
2019-03-01T04:43:28.896Z,6.78
2019-03-01T04:45:59.284Z,6.42
2019-03-01T04:48:31.630Z,7.22
2019-03-01T04:51:01.967Z,7.28
2019-03-01T04:53:32.316Z,7.92
2019-03-01T04:56:02.648Z,6.53
2019-03-01T04:58:32.981Z,7.37
2019-03-01T05:01:03.890Z,7.05
2019-03-01T05:03:34.360Z,7.30
2019-03-01T05:06:04.811Z,7.22
2019-03-01T05:08:35.155Z,7.00
2019-03-01T05:11:05.659Z,7.37
2019-03-01T05:13:36.019Z,7.67
2019-03-01T05:16:06.340Z,6.95
2019-03-01T05:18:37.069Z,6.70
2019-03-01T05:21:07.432Z,6.58
2019-03-01T05:23:37.721Z,7.22
2019-03-01T05:26:07.927Z,7.80
2019-03-01T05:28:38.350Z,6.75
2019-03-01T05:31:08.628Z,6.75
2019-03-01T05:33:38.842Z,7.30
2019-03-01T05:36:09.323Z,7.28
2019-03-01T05:38:39.600Z,7.17
2019-03-01T05:41:09.836Z,6.87
2019-03-01T05:43:40.215Z,6.72
2019-03-01T05:46:10.624Z,7.28
2019-03-01T05:48:40.949Z,6.90
2019-03-01T05:51:11.208Z,6.12
2019-03-01T05:53:41.505Z,5.58
2019-03-01T05:56:11.742Z,6.78
2019-03-01T05:59:12.765Z,6.65
2019-03-01T06:02:29.191Z,6.78
2019-03-01T06:05:02.518Z,6.17
2019-03-01T06:08:22.877Z,6.75
2019-03-01T06:11:04.940Z,6.78
2019-03-01T06:14:04.736Z,7.00
2019-03-01T06:17:11.609Z,6.70
2019-03-01T06:20:15.433Z,6.17
2019-03-01T06:23:11.825Z,6.10
2019-03-01T06:26:16.749Z,6.80
2019-03-01T06:29:33.967Z,7.20
2019-03-01T06:32:31.011Z,6.25
2019-03-01T06:35:28.660Z,6.75
2019-03-01T06:39:16.551Z,7.60
2019-03-01T06:41:57.360Z,7.70
2019-03-01T06:45:07.621Z,7.28
2019-03-01T06:47:49.071Z,7.62
2019-03-01T06:50:41.783Z,7.35
2019-03-01T06:53:12.308Z,10.23
2019-03-01T06:55:51.354Z,9.88
2019-03-01T06:58:45.355Z,11.48
2019-03-01T07:01:22.283Z,10.63
2019-03-01T07:04:02.993Z,10.25
2019-03-01T07:06:36.142Z,11.68
2019-03-01T07:09:08.469Z,12.45
2019-03-01T07:11:39.738Z,12.65
2019-03-01T07:14:12.494Z,13.10
2019-03-01T07:16:46.256Z,12.82
2019-03-01T07:19:20.204Z,14.63
2019-03-01T07:21:50.398Z,13.48
2019-03-01T07:24:23.312Z,14.07
2019-03-01T07:27:09.499Z,14.70
2019-03-01T07:29:53.313Z,14.10
2019-03-01T07:41:23.671Z,12.95
2019-03-01T07:44:17.039Z,13.88
2019-03-01T07:49:57.622Z,12.30
2019-03-01T07:58:57.487Z,12.15
2019-03-01T08:01:48.029Z,13.18
2019-03-01T08:10:21.351Z,11.73
2019-03-01T08:16:36.963Z,12.37
2019-03-01T08:19:08.230Z,12.50
2019-03-01T08:21:49.586Z,12.05
2019-03-01T08:24:20.281Z,11.65
2019-03-01T08:27:09.903Z,12.13
2019-03-01T08:32:50.791Z,10.48
2019-03-01T08:38:25.491Z,10.18
2019-03-01T08:46:21.850Z,9.08
2019-03-01T08:48:48.950Z,10.15
2019-03-01T08:51:22.709Z,8.38
2019-03-01T08:56:35.054Z,9.78
2019-03-01T08:59:09.588Z,8.88
2019-03-01T09:01:45.082Z,9.53
2019-03-01T09:04:17.664Z,9.00
2019-03-01T09:27:45.936Z,10.48
2019-03-01T09:33:09.239Z,9.45
2019-03-01T09:36:07.328Z,8.80
2019-03-01T09:47:08.423Z,7.90
2019-03-01T09:52:10.337Z,7.22
2019-03-01T09:55:21.567Z,7.05
2019-03-01T09:58:13.316Z,8.48
2019-03-01T10:00:56.037Z,7.25
2019-03-01T10:03:20.156Z,7.45
2019-03-01T10:05:53.661Z,7.62
2019-03-01T10:11:18.954Z,8.33
2019-03-01T10:14:08.635Z,8.23
2019-03-01T10:23:07.708Z,8.70
2019-03-01T10:25:56.310Z,8.13
2019-03-01T10:33:52.958Z,7.90
2019-03-01T10:36:27.886Z,7.20
2019-03-01T10:39:05.548Z,7.15
2019-03-01T10:53:03.415Z,7.08
2019-03-01T10:55:35.607Z,7.37
2019-03-01T11:04:33.721Z,8.03
2019-03-01T11:07:05.028Z,10.28
2019-03-01T11:09:37.527Z,10.05
2019-03-01T11:12:08.565Z,9.30
2019-03-01T11:14:40.538Z,10.23
2019-03-01T11:17:12.282Z,9.65
2019-03-01T11:19:44.016Z,8.40
2019-03-01T11:33:37.358Z,8.20
2019-03-01T11:36:27.209Z,8.38
2019-03-01T11:38:58.305Z,8.93
2019-03-01T11:41:28.830Z,9.53
2019-03-01T11:43:59.432Z,8.23
2019-03-01T11:46:36.151Z,9.05
2019-03-01T12:01:16.909Z,9.10
2019-03-01T12:06:40.741Z,8.95
2019-03-01T12:09:47.871Z,8.38
2019-03-01T12:18:57.680Z,10.13
2019-03-01T12:21:35.489Z,9.83
2019-03-01T12:24:12.875Z,8.88
2019-03-01T12:26:52.063Z,8.88
2019-03-01T12:29:25.202Z,9.15
2019-03-01T12:31:57.259Z,8.75
2019-03-01T12:34:30.352Z,8.75
2019-03-01T12:37:00.992Z,8.55
2019-03-01T12:40:07.535Z,8.18
2019-03-01T12:43:00.775Z,8.13
2019-03-01T12:45:39.097Z,8.55
2019-03-01T12:48:12.893Z,6.75
2019-03-01T12:50:47.353Z,8.05
2019-03-01T12:53:51.843Z,8.03
2019-03-01T12:56:13.962Z,8.23
2019-03-01T12:58:44.257Z,7.45
2019-03-01T13:01:17.237Z,7.70
2019-03-01T13:03:53.647Z,7.83
2019-03-01T13:06:24.790Z,8.08
2019-03-01T13:12:04.740Z,7.87
2019-03-01T13:14:40.731Z,7.60
2019-03-01T13:17:13.332Z,8.55
2019-03-01T13:19:44.139Z,9.20
2019-03-01T13:46:19.922Z,8.13
2019-03-01T13:51:45.074Z,8.87
2019-03-01T14:00:41.898Z,7.58
2019-03-01T14:09:03.811Z,7.42
2019-03-01T14:11:37.013Z,7.08
2019-03-01T14:14:10.729Z,5.80
2019-03-01T14:16:42.800Z,5.30
2019-03-01T14:19:13.523Z,5.03
2019-03-01T14:21:44.263Z,5.10
2019-03-01T14:24:14.592Z,5.15
2019-03-01T14:26:45.308Z,4.42
2019-03-01T14:29:16.198Z,4.30
2019-03-01T14:31:47.286Z,4.25
2019-03-01T14:34:25.265Z,4.12
2019-03-01T14:36:55.830Z,3.50
2019-03-01T14:39:26.437Z,3.98
2019-03-01T14:41:58.495Z,3.50
2019-03-01T14:44:33.934Z,3.33
2019-03-01T14:47:04.863Z,2.87
2019-03-01T14:49:35.905Z,2.90
2019-03-01T14:52:06.454Z,3.70
2019-03-01T14:54:37.916Z,2.70
2019-03-01T14:57:33.501Z,3.02
2019-03-01T15:00:16.072Z,3.00
2019-03-01T15:03:05.184Z,3.20
2019-03-01T15:05:42.932Z,2.67
2019-03-01T15:08:22.581Z,3.80
2019-03-01T15:13:20.536Z,2.85
2019-03-01T15:18:25.147Z,3.08
2019-03-01T15:21:05.819Z,2.75
2019-03-01T15:23:43.338Z,2.92
2019-03-01T15:31:51.234Z,2.55
2019-03-01T15:34:23.965Z,2.33
2019-03-01T15:37:06.904Z,2.30
2019-03-01T15:39:39.199Z,2.80
2019-03-01T15:42:28.990Z,2.30
2019-03-01T15:45:05.068Z,2.12
2019-03-01T15:47:42.537Z,2.35
2019-03-01T15:50:12.242Z,2.50
2019-03-01T15:52:49.652Z,2.15
2019-03-01T15:55:25.229Z,2.20
2019-03-01T15:58:18.445Z,2.20
2019-03-01T16:00:49.664Z,2.08
2019-03-01T16:03:18.957Z,2.50
2019-03-01T16:05:49.795Z,2.20
2019-03-01T16:08:31.970Z,2.50
2019-03-01T16:16:17.693Z,2.13
2019-03-01T16:18:48.507Z,2.57
2019-03-01T16:21:27.195Z,2.10
2019-03-01T16:26:38.050Z,2.87
2019-03-01T16:32:00.965Z,3.20
2019-03-01T16:34:31.143Z,3.20
2019-03-01T16:37:00.589Z,3.00
2019-03-01T16:39:30.977Z,2.60
2019-03-01T16:42:01.384Z,2.57
2019-03-01T16:44:31.784Z,2.70
2019-03-01T16:47:03.536Z,2.30
2019-03-01T16:49:34.107Z,2.37
2019-03-01T16:52:04.470Z,2.20
2019-03-01T16:54:34.971Z,3.00
2019-03-01T16:57:05.399Z,1.98
2019-03-01T16:59:39.554Z,2.60
2019-03-01T17:06:22.068Z,2.37
2019-03-01T17:09:06.737Z,2.40
2019-03-01T17:11:37.679Z,2.37
2019-03-01T17:14:47.932Z,2.20
2019-03-01T17:17:28.631Z,2.17
2019-03-01T17:33:33.458Z,2.40
2019-03-01T17:36:06.544Z,3.08
2019-03-01T17:38:43.510Z,2.85
2019-03-01T17:41:12.643Z,2.60
2019-03-01T17:51:23.622Z,2.80
2019-03-01T17:53:54.039Z,2.80
2019-03-01T17:56:25.525Z,2.30
2019-03-01T17:59:03.871Z,2.65
2019-03-01T18:02:05.470Z,2.40
2019-03-01T18:04:36.894Z,2.58
2019-03-01T18:07:12.071Z,3.10
2019-03-01T18:09:44.197Z,3.33
2019-03-01T18:12:17.465Z,2.80
2019-03-01T18:14:46.670Z,3.35
2019-03-01T18:17:17.066Z,2.67
2019-03-01T18:19:47.504Z,2.90
2019-03-01T18:22:17.982Z,2.27
2019-03-01T18:24:49.936Z,2.67
2019-03-01T18:27:20.466Z,3.00
2019-03-01T18:29:51.901Z,2.95
2019-03-01T18:32:22.438Z,3.00
2019-03-01T18:37:55.079Z,3.20
2019-03-01T18:40:24.089Z,3.08
2019-03-01T18:42:54.489Z,2.72
2019-03-01T18:45:24.817Z,2.62
2019-03-01T18:47:55.308Z,2.65
2019-03-01T18:50:27.628Z,2.70
2019-03-01T18:52:59.532Z,2.50
2019-03-01T18:55:29.802Z,3.25
2019-03-01T18:58:00.099Z,2.37
2019-03-01T19:00:35.659Z,3.17
2019-03-01T19:03:05.474Z,2.58
2019-03-01T19:05:36.624Z,2.80
2019-03-01T19:08:08.235Z,2.87
2019-03-01T19:10:38.565Z,2.58
2019-03-01T19:13:08.955Z,2.70
2019-03-01T19:15:39.380Z,2.90
2019-03-01T19:18:09.773Z,2.75
2019-03-01T19:20:41.508Z,2.83
2019-03-01T19:23:12.295Z,2.72
2019-03-01T19:25:42.694Z,2.65
2019-03-01T19:28:13.067Z,2.65
2019-03-01T19:30:45.940Z,2.60
2019-03-01T19:33:17.213Z,2.83
2019-03-01T19:35:47.769Z,2.67
2019-03-01T19:38:18.187Z,2.77
2019-03-01T19:40:48.544Z,2.62
2019-03-01T19:43:18.880Z,2.27
2019-03-01T19:45:49.317Z,2.58
2019-03-01T19:48:19.811Z,2.52
2019-03-01T19:50:50.223Z,2.55
2019-03-01T19:53:21.623Z,2.50
2019-03-01T19:55:52.753Z,2.37
2019-03-01T19:58:23.303Z,2.50
2019-03-01T20:00:53.575Z,2.58
2019-03-01T20:03:23.964Z,2.67
2019-03-01T20:05:54.438Z,2.33
2019-03-01T20:08:26.486Z,2.27
2019-03-01T20:10:56.856Z,2.27
2019-03-01T20:13:28.321Z,2.25
2019-03-01T20:15:58.778Z,2.25
2019-03-01T20:18:29.152Z,2.10
2019-03-01T20:20:59.563Z,2.40
2019-03-01T20:23:30.766Z,1.90
2019-03-01T20:26:01.144Z,2.00
2019-03-01T20:28:31.632Z,2.30
2019-03-01T20:31:04.960Z,2.50
2019-03-01T20:33:34.974Z,2.00
2019-03-01T20:36:05.320Z,2.60
2019-03-01T20:38:37.135Z,2.27
2019-03-01T20:41:07.968Z,2.20
2019-03-01T20:43:41.736Z,2.42
2019-03-01T20:46:10.328Z,2.00
2019-03-01T20:48:40.719Z,2.30
2019-03-01T20:51:11.020Z,2.10
2019-03-01T20:53:41.460Z,2.40
2019-03-01T20:56:13.490Z,2.42
2019-03-01T20:58:43.770Z,2.17
2019-03-01T21:01:14.518Z,2.25
2019-03-01T21:03:44.894Z,1.82
2019-03-01T21:06:15.315Z,1.85
2019-03-01T21:08:45.802Z,1.80
2019-03-01T21:11:16.188Z,2.10
2019-03-01T21:13:49.035Z,2.12
2019-03-01T21:16:18.556Z,1.92
2019-03-01T21:18:48.924Z,2.02
2019-03-01T21:21:19.203Z,1.90
2019-03-01T21:23:50.953Z,1.75
2019-03-01T21:26:21.493Z,1.90
2019-03-01T21:28:52.071Z,1.75
2019-03-01T21:31:22.498Z,1.60
2019-03-01T21:33:52.859Z,1.92
2019-03-01T21:36:26.272Z,1.92
2019-03-01T21:38:55.187Z,2.27
2019-03-01T21:41:26.679Z,1.60
2019-03-01T21:43:57.085Z,1.72
2019-03-01T21:46:30.555Z,1.87
2019-03-01T21:49:00.483Z,2.00
2019-03-01T21:51:31.871Z,1.85
2019-03-01T21:54:02.264Z,1.95
2019-03-01T21:56:32.695Z,1.87
2019-03-01T21:59:03.061Z,1.98
2019-03-01T22:01:33.480Z,1.98
2019-03-01T22:04:03.867Z,2.05
2019-03-01T22:06:35.159Z,1.77
2019-03-01T22:09:06.278Z,1.87
2019-03-01T22:11:38.235Z,2.10
2019-03-01T22:14:10.763Z,1.70
2019-03-01T22:16:40.629Z,2.35
2019-03-01T22:19:10.987Z,2.17
2019-03-01T22:21:41.373Z,2.00
2019-03-01T22:24:11.686Z,2.00
2019-03-01T22:26:42.342Z,2.10
2019-03-01T22:29:13.025Z,2.20
2019-03-01T22:31:43.535Z,2.15
2019-03-01T22:34:13.848Z,2.05
2019-03-01T22:36:44.176Z,1.98
2019-03-01T22:39:16.576Z,2.20
2019-03-01T22:41:46.514Z,1.80
2019-03-01T22:44:16.851Z,2.20
2019-03-01T22:46:47.173Z,1.90
2019-03-01T22:49:17.578Z,1.95
2019-03-01T22:51:49.658Z,2.30
2019-03-01T22:54:20.083Z,1.87
2019-03-01T22:56:50.453Z,2.42
2019-03-01T22:59:21.023Z,2.00
2019-03-01T23:01:53.742Z,2.08
2019-03-01T23:04:26.601Z,1.92
2019-03-01T23:06:56.551Z,1.98
2019-03-01T23:09:27.103Z,2.20
2019-03-01T23:11:59.082Z,2.02
2019-03-01T23:14:30.716Z,1.90
2019-03-01T23:17:01.451Z,1.90
2019-03-01T23:19:32.895Z,1.72
2019-03-01T23:22:03.274Z,1.80
2019-03-01T23:24:35.103Z,2.10
2019-03-01T23:27:05.679Z,1.50
2019-03-01T23:29:36.103Z,1.75
2019-03-01T23:32:06.467Z,1.90
2019-03-01T23:34:38.932Z,1.90
2019-03-01T23:37:08.957Z,1.80
2019-03-01T23:39:39.314Z,2.05
2019-03-01T23:42:09.751Z,2.05
2019-03-01T23:44:41.522Z,1.98
2019-03-01T23:47:13.339Z,1.85
2019-03-01T23:49:44.681Z,1.82
2019-03-01T23:52:15.124Z,1.98
2019-03-01T23:54:47.210Z,2.20
2019-03-01T23:57:17.391Z,1.90
2019-03-01T23:59:47.804Z,1.87
